Industry, Nebraska
Current Conditions -  °F | °C
As of 10:15 AM on Sunday 21 Dec 2014 (Local Time) from KHDE Reporting Station
Haze Haze  
Wind Chill: 22°   Ceiling: 300
Heat Index: 33°   Visibility: 3mi
Dew Point: 31°   Wind: 17mph
Humidity: 94%   Direction: 200°SSW
Pressure: 29.76"   Gusts: 21mph
Location:  40.3923°N, 99.5355°W
Report Text: KHDE 211615Z AUTO 20015G18KT 3SM BR OVC003 01/00 A2976 RMK AO2 T00061003
Loading
Personal Weather Stations






























Interactive Weather Map New forecast layout! Learn more

10-Day Weather Forecast

Advertisements
Track Severe Weather on mobile